Time;durP1;ratioP1;P1;durP2;ratioP2;P2;SDS_P1;SDS_P2;PMS_P1;PMS_P2;Temp;Humidity;BMP_temperature;BMP_pressure;BME280_temperature;BME280_humidity;BME280_pressure;Samples;Min_cycle;Max_cycle;Signal;HPM_P1;HPM_P2
2022/07/19 19:55:00;;;;;;;3.08;2.00;;;35.20;27.50;;;;;;6143236;22;1275867;-77
2022/07/19 19:57:25;;;;;;;2.53;2.00;;;35.00;27.60;;;;;;6126507;23;20018;-83
2022/07/19 20:02:31;;;;;;;5.03;2.90;;;34.70;28.20;;;;;;6115494;23;20190;-82
2022/07/19 20:04:57;;;;;;;6.27;3.23;;;34.60;28.40;;;;;;6132327;23;20013;-82
2022/07/19 20:07:22;;;;;;;9.30;4.93;;;34.50;28.70;;;;;;6111257;23;20273;-82
2022/07/19 20:09:48;;;;;;;7.33;4.70;;;34.30;28.80;;;;;;6128744;23;20012;-82
2022/07/19 20:12:14;;;;;;;8.55;4.88;;;34.20;29.00;;;;;;6085987;23;20305;-81
2022/07/19 20:14:40;;;;;;;8.83;5.53;;;34.00;29.30;;;;;;6094469;23;20068;-81
2022/07/19 20:17:05;;;;;;;10.93;6.50;;;33.90;29.60;;;;;;6093879;23;20287;-81
2022/07/19 20:19:32;;;;;;;10.07;5.90;;;33.80;29.90;;;;;;6130306;23;20013;-81
2022/07/19 20:21:59;;;;;;;7.63;5.28;;;33.60;30.00;;;;;;6120298;23;20625;-81
2022/07/19 20:24:24;;;;;;;8.52;5.18;;;33.50;30.10;;;;;;6122171;23;20020;-82
2022/07/19 20:26:50;;;;;;;7.07;4.90;;;33.30;30.40;;;;;;6104407;23;20227;-82
2022/07/19 20:29:16;;;;;;;7.03;4.55;;;33.20;30.80;;;;;;6126145;23;20036;-82
2022/07/19 20:31:42;;;;;;;6.65;4.53;;;33.00;30.90;;;;;;6085127;23;20025;-81
2022/07/19 20:34:07;;;;;;;5.67;4.13;;;33.00;31.30;;;;;;6105913;23;20317;-81
2022/07/19 20:36:33;;;;;;;6.55;4.20;;;32.80;31.40;;;;;;6101844;23;20421;-81
2022/07/19 20:38:59;;;;;;;6.57;3.60;;;32.70;31.60;;;;;;6098055;23;20036;-82
2022/07/19 20:41:25;;;;;;;7.18;3.72;;;32.60;31.80;;;;;;6103878;23;20035;-82
2022/07/19 20:43:51;;;;;;;6.50;3.50;;;32.50;32.00;;;;;;6104112;23;20178;-82
2022/07/19 20:46:17;;;;;;;4.77;3.30;;;32.40;32.40;;;;;;6108753;23;20013;-82
2022/07/19 20:48:42;;;;;;;4.60;3.08;;;32.20;32.50;;;;;;6118981;23;20459;-82
2022/07/19 20:51:08;;;;;;;5.32;3.20;;;32.20;32.90;;;;;;6127422;23;20343;-81
2022/07/19 20:53:34;;;;;;;5.63;3.03;;;32.10;33.00;;;;;;6108707;23;20013;-82
2022/07/19 20:55:59;;;;;;;3.63;2.70;;;31.90;33.20;;;;;;6123490;23;20104;-82
2022/07/19 20:58:25;;;;;;;3.73;2.80;;;31.80;33.40;;;;;;6135671;23;20016;-82
2022/07/19 21:00:51;;;;;;;4.47;2.50;;;31.70;33.60;;;;;;6088524;23;20314;-82
2022/07/19 21:03:16;;;;;;;3.40;2.40;;;31.60;33.60;;;;;;6067081;23;20010;-82
2022/07/19 21:05:42;;;;;;;3.20;2.40;;;31.50;33.90;;;;;;6096357;23;20020;-81
2022/07/19 21:08:08;;;;;;;3.67;2.43;;;31.50;34.10;;;;;;6061546;23;20269;-81
2022/07/19 21:10:33;;;;;;;4.65;2.60;;;31.30;34.40;;;;;;6077364;23;20041;-81
2022/07/19 21:12:59;;;;;;;3.13;2.30;;;31.30;34.50;;;;;;6104147;23;20013;-82
2022/07/19 21:15:26;;;;;;;4.22;2.58;;;31.20;34.80;;;;;;6098292;23;20040;-82
2022/07/19 21:17:52;;;;;;;3.90;2.60;;;31.10;35.10;;;;;;6103503;23;20383;-82
2022/07/19 21:20:18;;;;;;;3.08;2.30;;;31.00;35.00;;;;;;6105814;23;20389;-82
2022/07/19 21:22:46;;;;;;;3.37;2.40;;;30.90;35.30;;;;;;6084840;23;20014;-82
2022/07/19 21:25:12;;;;;;;3.25;2.30;;;30.80;35.30;;;;;;6099044;23;20351;-82
2022/07/19 21:27:39;;;;;;;2.83;2.53;;;30.70;35.50;;;;;;6109488;23;20064;-81
2022/07/19 21:30:05;;;;;;;3.20;2.30;;;30.70;35.90;;;;;;6101823;23;20049;-82
2022/07/19 21:32:31;;;;;;;3.25;2.60;;;30.60;36.00;;;;;;6078802;23;20246;-82
2022/07/19 21:34:57;;;;;;;2.43;1.97;;;30.40;36.10;;;;;;6096443;23;20014;-82
2022/07/19 21:37:22;;;;;;;3.35;2.42;;;30.30;36.20;;;;;;6078924;23;20010;-82
2022/07/19 21:39:48;;;;;;;2.70;2.50;;;30.30;36.50;;;;;;6081555;23;20021;-81
2022/07/19 21:42:14;;;;;;;3.90;2.50;;;30.20;36.70;;;;;;6098453;23;20022;-82
2022/07/19 21:44:39;;;;;;;2.67;2.30;;;30.10;36.90;;;;;;6112674;23;20010;-82
2022/07/19 21:47:05;;;;;;;3.10;2.50;;;30.10;37.00;;;;;;6096119;23;20005;-81
2022/07/19 21:49:31;;;;;;;3.70;2.40;;;30.00;37.10;;;;;;6101115;23;20391;-82
2022/07/19 21:51:57;;;;;;;3.60;2.33;;;29.90;37.30;;;;;;6107237;23;20049;-82
2022/07/19 21:54:23;;;;;;;3.33;2.80;;;29.80;37.50;;;;;;6076454;23;20172;-82
2022/07/19 21:56:48;;;;;;;4.30;2.33;;;29.70;37.60;;;;;;6079425;23;20080;-82
2022/07/19 21:59:14;;;;;;;2.87;2.50;;;29.70;37.80;;;;;;6105298;23;20590;-82
2022/07/19 22:01:39;;;;;;;3.70;2.50;;;29.60;37.90;;;;;;6104828;23;20045;-82
2022/07/19 22:04:05;;;;;;;2.27;2.00;;;29.60;38.10;;;;;;6096822;23;20020;-81
2022/07/19 22:06:31;;;;;;;3.70;2.47;;;29.50;38.00;;;;;;6105177;23;20025;-82
2022/07/19 22:08:58;;;;;;;4.20;2.20;;;29.50;38.30;;;;;;6105595;23;20651;-82
2022/07/19 22:11:24;;;;;;;5.55;2.58;;;29.40;38.30;;;;;;6099222;23;20014;-82
2022/07/19 22:13:49;;;;;;;3.05;2.40;;;29.30;38.30;;;;;;6080318;23;20018;-82
2022/07/19 22:16:16;;;;;;;3.78;2.60;;;29.30;38.50;;;;;;6103463;23;20052;-82
2022/07/19 22:18:42;;;;;;;3.67;2.50;;;29.30;38.50;;;;;;6081328;23;20046;-82
2022/07/19 22:21:07;;;;;;;3.80;2.30;;;29.20;38.50;;;;;;6068625;23;20030;-81
2022/07/19 22:23:33;;;;;;;3.78;2.30;;;29.10;38.60;;;;;;6087068;23;20014;-82
2022/07/19 22:25:59;;;;;;;4.87;2.33;;;29.10;38.80;;;;;;6096778;23;20009;-82
2022/07/19 22:28:24;;;;;;;3.25;2.28;;;29.10;38.90;;;;;;6110581;23;20017;-82
2022/07/19 22:30:52;;;;;;;3.73;2.47;;;29.00;39.00;;;;;;6101180;23;20207;-82
2022/07/19 22:33:18;;;;;;;4.47;2.20;;;29.00;39.10;;;;;;6101795;23;20005;-82
2022/07/19 22:35:43;;;;;;;2.73;2.43;;;28.90;39.30;;;;;;6099339;23;20578;-82
2022/07/19 22:38:09;;;;;;;3.72;2.40;;;28.80;39.50;;;;;;6082137;23;20010;-82
2022/07/19 22:40:35;;;;;;;3.33;2.23;;;28.80;39.60;;;;;;6076774;23;20073;-82
2022/07/19 22:43:01;;;;;;;3.25;2.63;;;28.70;39.70;;;;;;6108829;23;20013;-81
2022/07/19 22:45:27;;;;;;;3.95;2.33;;;28.60;39.90;;;;;;6106386;23;20492;-82
2022/07/19 22:47:52;;;;;;;2.80;2.40;;;28.50;40.00;;;;;;6099234;23;20017;-81
2022/07/19 22:50:19;;;;;;;3.70;2.45;;;28.50;40.20;;;;;;6108798;23;20022;-81
2022/07/19 22:52:44;;;;;;;3.70;2.23;;;28.40;40.20;;;;;;6073446;23;20141;-81
2022/07/19 22:55:10;;;;;;;3.08;2.38;;;28.40;40.30;;;;;;6114891;23;20376;-82
2022/07/19 22:57:36;;;;;;;4.13;2.50;;;28.30;40.40;;;;;;6102132;23;20198;-82
2022/07/19 23:00:05;;;;;;;3.27;2.40;;;28.20;40.50;;;;;;6109887;23;20054;-81
2022/07/19 23:02:30;;;;;;;3.17;2.20;;;28.20;40.90;;;;;;6071680;23;20026;-81
2022/07/19 23:04:56;;;;;;;4.17;2.40;;;28.20;40.10;;;;;;6108460;23;20032;-82
2022/07/19 23:07:21;;;;;;;2.80;2.10;;;28.20;39.80;;;;;;6074313;23;20057;-82
2022/07/19 23:09:47;;;;;;;2.57;2.03;;;28.10;39.40;;;;;;6105692;23;20260;-82
2022/07/19 23:12:13;;;;;;;3.50;2.20;;;28.10;39.50;;;;;;6080362;23;20022;-81
2022/07/19 23:14:38;;;;;;;2.80;2.07;;;28.10;39.60;;;;;;6083992;23;20102;-81
2022/07/19 23:17:04;;;;;;;3.40;2.00;;;28.10;39.40;;;;;;6110738;23;20057;-80
2022/07/19 23:19:29;;;;;;;2.85;2.00;;;28.10;39.10;;;;;;6075141;23;20335;-80
2022/07/19 23:21:55;;;;;;;2.57;2.03;;;28.20;39.30;;;;;;6085649;23;20021;-80
2022/07/19 23:24:21;;;;;;;2.58;1.92;;;28.20;39.30;;;;;;6070395;23;20340;-81
2022/07/19 23:26:47;;;;;;;3.57;1.80;;;28.20;39.30;;;;;;6085323;23;20073;-81
2022/07/19 23:29:13;;;;;;;3.00;2.00;;;28.20;39.40;;;;;;6082671;23;20018;-80
2022/07/19 23:31:39;;;;;;;2.38;1.90;;;28.20;39.10;;;;;;6074538;23;20014;-81
2022/07/19 23:34:05;;;;;;;2.47;2.00;;;28.20;39.40;;;;;;6084001;23;20033;-80
2022/07/19 23:36:31;;;;;;;2.65;2.10;;;28.20;39.20;;;;;;6101206;23;20343;-80
2022/07/19 23:38:56;;;;;;;3.13;1.95;;;28.10;39.90;;;;;;6103953;23;20041;-80
2022/07/19 23:41:22;;;;;;;4.90;1.90;;;28.10;39.20;;;;;;6112594;23;20451;-80
2022/07/19 23:43:48;;;;;;;2.40;2.10;;;28.10;39.30;;;;;;6079234;23;20722;-80
2022/07/19 23:46:13;;;;;;;2.00;1.80;;;28.10;39.30;;;;;;6090297;23;20269;-80
2022/07/19 23:48:39;;;;;;;2.87;1.90;;;28.00;40.10;;;;;;6076826;23;20446;-80
2022/07/19 23:51:06;;;;;;;2.70;2.20;;;27.90;39.50;;;;;;6085910;23;20724;-81
2022/07/19 23:53:32;;;;;;;3.00;2.00;;;27.90;39.60;;;;;;6074740;23;20006;-80
2022/07/19 23:55:57;;;;;;;2.47;1.77;;;27.80;39.50;;;;;;6087969;23;20029;-81
2022/07/19 23:58:23;;;;;;;3.60;1.90;;;27.80;39.60;;;;;;6104786;23;20014;-80
